sensor_id;sensor_type;location;lat;lon;timestamp;temperature;humidity
14775;DHT22;7479;47.042;15.160;2022-10-16T07:06:47;10.80;99.90
14775;DHT22;7479;47.042;15.160;2022-10-16T07:38:28;11.90;99.90
14775;DHT22;7479;47.042;15.160;2022-10-16T08:04:21;12.80;99.90
14775;DHT22;7479;47.042;15.160;2022-10-16T08:26:19;13.80;99.90
14775;DHT22;7479;47.042;15.160;2022-10-16T08:31:14;14.10;99.90
14775;DHT22;7479;47.042;15.160;2022-10-16T08:54:40;15.30;99.90
14775;DHT22;7479;47.042;15.160;2022-10-16T08:59:34;15.60;99.90
14775;DHT22;7479;47.042;15.160;2022-10-16T09:04:50;15.90;99.90
14775;DHT22;7479;47.042;15.160;2022-10-16T09:25:56;17.00;99.90
14775;DHT22;7479;47.042;15.160;2022-10-16T09:30:51;17.30;99.90
14775;DHT22;7479;47.042;15.160;2022-10-16T09:35:47;17.70;99.90
14775;DHT22;7479;47.042;15.160;2022-10-16T09:40:42;18.00;99.90
14775;DHT22;7479;47.042;15.160;2022-10-16T09:45:37;18.50;99.90
14775;DHT22;7479;47.042;15.160;2022-10-16T09:50:31;18.90;99.90
14775;DHT22;7479;47.042;15.160;2022-10-16T09:55:25;19.20;99.90
14775;DHT22;7479;47.042;15.160;2022-10-16T10:00:22;19.60;99.90
14775;DHT22;7479;47.042;15.160;2022-10-16T10:05:28;19.90;99.90
14775;DHT22;7479;47.042;15.160;2022-10-16T10:10:24;20.20;99.90
14775;DHT22;7479;47.042;15.160;2022-10-16T10:15:18;20.50;99.90
14775;DHT22;7479;47.042;15.160;2022-10-16T10:20:22;20.80;99.90
14775;DHT22;7479;47.042;15.160;2022-10-16T10:25:32;21.30;99.90
14775;DHT22;7479;47.042;15.160;2022-10-16T10:30:38;21.80;99.90
14775;DHT22;7479;47.042;15.160;2022-10-16T10:35:41;22.20;99.90
14775;DHT22;7479;47.042;15.160;2022-10-16T10:46:04;22.50;99.90
14775;DHT22;7479;47.042;15.160;2022-10-16T10:51:03;22.80;99.90
14775;DHT22;7479;47.042;15.160;2022-10-16T10:56:06;23.30;99.90
14775;DHT22;7479;47.042;15.160;2022-10-16T11:01:06;23.60;98.70
14775;DHT22;7479;47.042;15.160;2022-10-16T11:06:06;24.10;98.60
14775;DHT22;7479;47.042;15.160;2022-10-16T11:11:03;24.40;98.00
14775;DHT22;7479;47.042;15.160;2022-10-16T11:16:08;24.70;96.80
14775;DHT22;7479;47.042;15.160;2022-10-16T11:21:14;24.90;96.60
14775;DHT22;7479;47.042;15.160;2022-10-16T11:26:14;25.00;95.70
14775;DHT22;7479;47.042;15.160;2022-10-16T11:31:13;25.30;94.40
14775;DHT22;7479;47.042;15.160;2022-10-16T11:36:18;25.60;94.90
14775;DHT22;7479;47.042;15.160;2022-10-16T11:41:20;25.80;92.70
14775;DHT22;7479;47.042;15.160;2022-10-16T11:46:19;25.90;93.60
14775;DHT22;7479;47.042;15.160;2022-10-16T11:51:21;26.00;93.60
14775;DHT22;7479;47.042;15.160;2022-10-16T11:56:21;26.20;93.90
14775;DHT22;7479;47.042;15.160;2022-10-16T12:01:18;26.50;93.50
14775;DHT22;7479;47.042;15.160;2022-10-16T12:06:31;26.60;93.30
14775;DHT22;7479;47.042;15.160;2022-10-16T12:11:34;26.80;92.20
14775;DHT22;7479;47.042;15.160;2022-10-16T12:16:29;26.90;91.30
14775;DHT22;7479;47.042;15.160;2022-10-16T12:21:31;27.10;91.20
14775;DHT22;7479;47.042;15.160;2022-10-16T12:26:27;27.10;90.80
14775;DHT22;7479;47.042;15.160;2022-10-16T12:31:37;27.30;90.20
14775;DHT22;7479;47.042;15.160;2022-10-16T12:36:51;27.50;89.50
14775;DHT22;7479;47.042;15.160;2022-10-16T12:41:47;27.70;87.10
14775;DHT22;7479;47.042;15.160;2022-10-16T12:46:43;27.80;85.50
14775;DHT22;7479;47.042;15.160;2022-10-16T12:51:38;28.30;86.70
14775;DHT22;7479;47.042;15.160;2022-10-16T12:56:41;28.90;84.20
14775;DHT22;7479;47.042;15.160;2022-10-16T13:01:48;29.50;81.80
14775;DHT22;7479;47.042;15.160;2022-10-16T13:06:53;30.10;80.10
14775;DHT22;7479;47.042;15.160;2022-10-16T13:12:14;30.60;77.50
14775;DHT22;7479;47.042;15.160;2022-10-16T13:17:15;31.60;75.20
14775;DHT22;7479;47.042;15.160;2022-10-16T13:22:17;31.80;72.70
14775;DHT22;7479;47.042;15.160;2022-10-16T13:27:23;31.90;72.30
14775;DHT22;7479;47.042;15.160;2022-10-16T13:32:20;32.60;69.50
14775;DHT22;7479;47.042;15.160;2022-10-16T13:37:19;32.70;66.70
14775;DHT22;7479;47.042;15.160;2022-10-16T13:42:20;32.80;67.50
14775;DHT22;7479;47.042;15.160;2022-10-16T13:47:21;33.10;66.50
14775;DHT22;7479;47.042;15.160;2022-10-16T13:52:19;33.40;65.00
14775;DHT22;7479;47.042;15.160;2022-10-16T13:57:17;32.80;65.60
14775;DHT22;7479;47.042;15.160;2022-10-16T14:02:24;32.90;64.90
14775;DHT22;7479;47.042;15.160;2022-10-16T14:07:24;32.90;65.00
14775;DHT22;7479;47.042;15.160;2022-10-16T14:12:21;33.00;64.80
14775;DHT22;7479;47.042;15.160;2022-10-16T14:17:21;33.30;64.10
14775;DHT22;7479;47.042;15.160;2022-10-16T14:22:26;33.60;63.40
14775;DHT22;7479;47.042;15.160;2022-10-16T14:27:29;33.60;63.00
14775;DHT22;7479;47.042;15.160;2022-10-16T14:32:26;33.20;63.70
14775;DHT22;7479;47.042;15.160;2022-10-16T14:37:24;33.00;64.40
14775;DHT22;7479;47.042;15.160;2022-10-16T14:42:20;33.00;63.70
14775;DHT22;7479;47.042;15.160;2022-10-16T14:47:18;32.80;63.80
14775;DHT22;7479;47.042;15.160;2022-10-16T14:52:17;32.30;64.20
14775;DHT22;7479;47.042;15.160;2022-10-16T14:57:17;31.80;65.30
14775;DHT22;7479;47.042;15.160;2022-10-16T15:02:20;29.50;68.70
14775;DHT22;7479;47.042;15.160;2022-10-16T15:07:16;26.40;77.10
14775;DHT22;7479;47.042;15.160;2022-10-16T15:12:10;24.70;83.30
14775;DHT22;7479;47.042;15.160;2022-10-16T15:17:04;23.80;87.50
14775;DHT22;7479;47.042;15.160;2022-10-16T15:21:59;23.20;91.10
14775;DHT22;7479;47.042;15.160;2022-10-16T15:26:53;22.50;93.00
14775;DHT22;7479;47.042;15.160;2022-10-16T15:31:47;22.10;94.10
14775;DHT22;7479;47.042;15.160;2022-10-16T15:36:42;21.90;94.60
14775;DHT22;7479;47.042;15.160;2022-10-16T15:41:37;21.80;95.30
14775;DHT22;7479;47.042;15.160;2022-10-16T15:46:32;21.40;96.70
14775;DHT22;7479;47.042;15.160;2022-10-16T15:51:27;20.80;98.10
14775;DHT22;7479;47.042;15.160;2022-10-16T15:56:22;20.40;99.60
14775;DHT22;7479;47.042;15.160;2022-10-16T16:01:19;20.00;99.90
14775;DHT22;7479;47.042;15.160;2022-10-16T16:06:14;19.90;99.90
14775;DHT22;7479;47.042;15.160;2022-10-16T16:11:10;19.80;99.90
14775;DHT22;7479;47.042;15.160;2022-10-16T16:16:06;19.50;99.90
14775;DHT22;7479;47.042;15.160;2022-10-16T16:21:02;19.30;99.90
14775;DHT22;7479;47.042;15.160;2022-10-16T16:26:06;19.20;99.90
14775;DHT22;7479;47.042;15.160;2022-10-16T16:31:02;19.00;99.90
14775;DHT22;7479;47.042;15.160;2022-10-16T16:35:57;18.80;99.90
14775;DHT22;7479;47.042;15.160;2022-10-16T16:40:53;18.50;99.90
14775;DHT22;7479;47.042;15.160;2022-10-16T16:45:48;18.30;99.90
14775;DHT22;7479;47.042;15.160;2022-10-16T16:50:42;18.20;99.90
14775;DHT22;7479;47.042;15.160;2022-10-16T16:55:36;18.00;99.90
14775;DHT22;7479;47.042;15.160;2022-10-16T17:00:32;17.70;99.90
14775;DHT22;7479;47.042;15.160;2022-10-16T17:05:26;17.60;99.90
14775;DHT22;7479;47.042;15.160;2022-10-16T17:10:20;17.40;99.90
14775;DHT22;7479;47.042;15.160;2022-10-16T17:15:14;17.20;99.90
14775;DHT22;7479;47.042;15.160;2022-10-16T17:20:10;17.00;99.90
14775;DHT22;7479;47.042;15.160;2022-10-16T17:25:04;16.80;99.90
14775;DHT22;7479;47.042;15.160;2022-10-16T17:29:59;16.60;99.90
14775;DHT22;7479;47.042;15.160;2022-10-16T17:34:52;16.50;99.90
